Time;durP1;ratioP1;P1;durP2;ratioP2;P2;SDS_P1;SDS_P2;PMS_P1;PMS_P2;Temp;Humidity;BMP_temperature;BMP_pressure;BME280_temperature;BME280_humidity;BME280_pressure;Samples;Min_cycle;Max_cycle;Signal;HPM_P1;HPM_P2
2023/11/27 00:00:01;;;;;;;4.30;2.28;;;;;;;;;;4983931;28;20085;-67
2023/11/27 00:02:26;;;;;;;9.45;3.28;;;;;;;;;;4986460;28;20030;-67
2023/11/27 00:04:51;;;;;;;18.40;3.53;;;;;;;;;;4979193;28;20030;-67
2023/11/27 00:07:16;;;;;;;9.97;2.93;;;;;;;;;;4988370;28;20077;-67
2023/11/27 00:09:42;;;;;;;6.82;2.72;;;;;;;;;;4981415;28;20987;-67
2023/11/27 00:12:07;;;;;;;9.43;2.13;;;;;;;;;;4978277;28;20023;-67
2023/11/27 00:14:32;;;;;;;7.80;2.47;;;;;;;;;;4977040;28;20040;-67
2023/11/27 00:16:58;;;;;;;5.93;2.85;;;;;;;;;;4972618;28;20662;-67
2023/11/27 00:19:23;;;;;;;8.60;3.33;;;;;;;;;;4978952;28;20018;-67
2023/11/27 00:21:48;;;;;;;5.80;2.30;;;;;;;;;;4984351;28;20102;-67
2023/11/27 00:24:13;;;;;;;7.57;2.72;;;;;;;;;;4979620;28;20265;-67
2023/11/27 00:26:38;;;;;;;9.90;3.70;;;;;;;;;;4977782;28;20031;-67
2023/11/27 00:29:04;;;;;;;6.97;2.83;;;;;;;;;;4956466;28;20369;-67
2023/11/27 00:31:29;;;;;;;10.93;2.57;;;;;;;;;;4978110;28;20274;-67
2023/11/27 00:33:55;;;;;;;5.83;1.90;;;;;;;;;;4972205;28;20278;-67
2023/11/27 00:36:20;;;;;;;6.93;2.55;;;;;;;;;;4984972;28;20339;-67
2023/11/27 00:38:45;;;;;;;9.45;2.80;;;;;;;;;;4992280;28;20529;-67
2023/11/27 00:41:14;;;;;;;8.50;2.10;;;;;;;;;;4983928;28;20473;-67
2023/11/27 00:43:40;;;;;;;2.08;0.95;;;;;;;;;;4981639;28;20258;-67
2023/11/27 00:46:05;;;;;;;9.10;2.90;;;;;;;;;;4975369;28;20030;-67
2023/11/27 00:48:30;;;;;;;8.65;2.80;;;;;;;;;;4981531;28;20035;-67
2023/11/27 00:50:55;;;;;;;4.90;2.20;;;;;;;;;;4979164;28;20025;-67
2023/11/27 00:53:20;;;;;;;6.33;2.13;;;;;;;;;;4975959;28;20634;-67
2023/11/27 00:55:46;;;;;;;6.33;2.30;;;;;;;;;;4975079;28;20282;-67
2023/11/27 00:58:11;;;;;;;4.17;2.20;;;;;;;;;;4980116;28;20270;-67
2023/11/27 01:00:36;;;;;;;4.35;1.85;;;;;;;;;;4979034;28;20256;-67
2023/11/27 01:03:01;;;;;;;7.60;3.40;;;;;;;;;;4978858;28;20492;-67
2023/11/27 01:05:27;;;;;;;2.90;1.40;;;;;;;;;;4991653;28;20038;-67
2023/11/27 01:07:52;;;;;;;7.07;1.70;;;;;;;;;;4977260;28;20112;-67
2023/11/27 01:10:17;;;;;;;8.97;2.70;;;;;;;;;;4978858;28;20018;-66
2023/11/27 01:12:43;;;;;;;4.70;1.58;;;;;;;;;;4984935;28;20400;-66
2023/11/27 01:15:09;;;;;;;5.38;2.30;;;;;;;;;;4992286;28;20061;-66
2023/11/27 01:17:34;;;;;;;7.10;3.42;;;;;;;;;;4989472;28;20026;-67
2023/11/27 01:19:59;;;;;;;6.60;2.60;;;;;;;;;;4985212;28;20484;-66
2023/11/27 01:22:24;;;;;;;10.43;2.97;;;;;;;;;;4977679;28;20019;-66
2023/11/27 01:24:49;;;;;;;1.88;1.17;;;;;;;;;;4992107;28;20807;-66
2023/11/27 01:27:15;;;;;;;6.23;1.73;;;;;;;;;;4992077;28;20034;-66
2023/11/27 01:29:40;;;;;;;12.00;3.20;;;;;;;;;;5000692;28;20268;-66
2023/11/27 01:32:05;;;;;;;11.18;2.85;;;;;;;;;;4999883;28;20105;-66
2023/11/27 01:34:32;;;;;;;7.80;3.03;;;;;;;;;;4983550;28;20089;-66
2023/11/27 01:36:57;;;;;;;8.82;3.65;;;;;;;;;;4996291;28;20017;-66
2023/11/27 01:39:22;;;;;;;9.03;3.37;;;;;;;;;;4993263;28;20025;-66
2023/11/27 01:41:48;;;;;;;14.13;3.92;;;;;;;;;;4990893;28;20731;-66
2023/11/27 01:44:13;;;;;;;15.52;3.67;;;;;;;;;;4991237;28;20061;-66
2023/11/27 01:46:42;;;;;;;11.90;3.75;;;;;;;;;;4987461;28;20037;-66
2023/11/27 01:49:08;;;;;;;4.47;3.00;;;;;;;;;;4991024;28;20500;-66
2023/11/27 01:51:33;;;;;;;6.30;2.92;;;;;;;;;;4985425;28;20034;-66
2023/11/27 01:53:59;;;;;;;2.75;1.63;;;;;;;;;;4990995;28;20536;-66
2023/11/27 01:56:25;;;;;;;10.18;3.35;;;;;;;;;;4989489;28;20017;-66
2023/11/27 01:58:52;;;;;;;5.00;2.42;;;;;;;;;;4986720;28;20081;-66
2023/11/27 02:01:17;;;;;;;11.65;3.33;;;;;;;;;;4982412;28;20026;-66
2023/11/27 02:03:42;;;;;;;9.38;3.70;;;;;;;;;;4986857;28;20034;-66
2023/11/27 02:06:09;;;;;;;2.72;1.13;;;;;;;;;;4990625;28;20497;-66
2023/11/27 02:08:34;;;;;;;10.27;3.60;;;;;;;;;;4986968;28;20042;-66
2023/11/27 02:10:59;;;;;;;7.50;3.08;;;;;;;;;;4990022;28;20105;-66
2023/11/27 02:13:24;;;;;;;3.80;1.88;;;;;;;;;;4985192;28;20627;-66
2023/11/27 02:15:50;;;;;;;6.72;3.28;;;;;;;;;;4978306;28;20018;-66
2023/11/27 02:18:15;;;;;;;10.10;3.35;;;;;;;;;;4982766;28;20039;-66
2023/11/27 02:20:40;;;;;;;9.20;2.07;;;;;;;;;;4981928;28;20052;-66
2023/11/27 02:23:07;;;;;;;10.93;4.10;;;;;;;;;;4990077;28;20257;-66
2023/11/27 02:25:32;;;;;;;8.60;3.30;;;;;;;;;;4988261;28;20265;-66
2023/11/27 02:27:57;;;;;;;3.00;1.50;;;;;;;;;;4989901;28;20018;-66
2023/11/27 02:30:22;;;;;;;2.58;1.50;;;;;;;;;;4981434;28;20285;-66
2023/11/27 02:32:47;;;;;;;3.55;2.20;;;;;;;;;;4988055;28;20014;-66
2023/11/27 02:35:13;;;;;;;1.97;0.90;;;;;;;;;;4995461;28;20108;-66
2023/11/27 02:37:38;;;;;;;23.42;1.50;;;;;;;;;;4988072;28;20280;-66
2023/11/27 02:40:05;;;;;;;15.50;3.85;;;;;;;;;;4989419;28;20109;-66
2023/11/27 02:42:30;;;;;;;6.57;2.25;;;;;;;;;;4987973;28;20022;-66
2023/11/27 02:44:56;;;;;;;3.20;1.30;;;;;;;;;;4979063;28;20080;-66
2023/11/27 02:47:22;;;;;;;3.10;1.63;;;;;;;;;;4979422;28;20042;-66
2023/11/27 02:49:47;;;;;;;6.03;2.00;;;;;;;;;;4987146;28;20401;-66
2023/11/27 02:52:14;;;;;;;3.35;1.40;;;;;;;;;;4989383;28;20418;-66
2023/11/27 02:54:39;;;;;;;3.85;2.25;;;;;;;;;;4985583;28;20041;-66
2023/11/27 02:57:04;;;;;;;4.37;2.30;;;;;;;;;;4983776;28;20627;-66
2023/11/27 02:59:29;;;;;;;13.60;2.92;;;;;;;;;;4980912;28;20331;-66
2023/11/27 03:01:55;;;;;;;3.43;1.83;;;;;;;;;;4979919;28;20085;-66
2023/11/27 03:04:20;;;;;;;2.28;1.65;;;;;;;;;;4981543;28;20269;-66
2023/11/27 03:06:46;;;;;;;5.30;2.63;;;;;;;;;;4987476;28;20493;-66
2023/11/27 03:09:15;;;;;;;10.80;3.40;;;;;;;;;;4986947;28;20262;-66
2023/11/27 03:11:41;;;;;;;12.77;4.20;;;;;;;;;;4983469;28;20054;-66
2023/11/27 03:14:06;;;;;;;7.15;2.47;;;;;;;;;;4978046;28;20474;-66
2023/11/27 03:16:31;;;;;;;6.97;2.77;;;;;;;;;;4979642;28;20482;-66
2023/11/27 03:18:56;;;;;;;29.00;2.63;;;;;;;;;;4979968;28;20278;-66
2023/11/27 03:21:22;;;;;;;4.37;2.30;;;;;;;;;;4981616;28;20023;-66
2023/11/27 03:23:48;;;;;;;4.72;1.75;;;;;;;;;;4986348;28;20811;-66
2023/11/27 03:26:13;;;;;;;9.32;1.65;;;;;;;;;;4986757;28;20069;-66
2023/11/27 03:28:38;;;;;;;5.00;1.83;;;;;;;;;;4987490;28;20576;-66
2023/11/27 03:31:04;;;;;;;5.07;2.53;;;;;;;;;;4982988;28;20026;-66
2023/11/27 03:33:29;;;;;;;2.75;1.63;;;;;;;;;;4984692;28;20251;-66
2023/11/27 03:35:55;;;;;;;10.90;1.88;;;;;;;;;;4986791;28;20034;-66
2023/11/27 03:38:20;;;;;;;7.45;1.65;;;;;;;;;;4987964;28;20033;-66
2023/11/27 03:40:45;;;;;;;1.02;0.93;;;;;;;;;;4984914;28;20030;-66
2023/11/27 03:43:10;;;;;;;13.83;2.20;;;;;;;;;;4981007;28;20034;-66
2023/11/27 03:45:36;;;;;;;8.77;1.80;;;;;;;;;;4978048;28;20340;-66
2023/11/27 03:48:05;;;;;;;13.68;3.08;;;;;;;;;;4983915;28;20282;-66
2023/11/27 03:50:30;;;;;;;4.43;3.47;;;;;;;;;;4984898;28;20026;-66
2023/11/27 03:52:55;;;;;;;3.97;1.98;;;;;;;;;;4987093;28;20072;-66
2023/11/27 03:55:21;;;;;;;17.83;3.43;;;;;;;;;;4984040;28;20501;-66
2023/11/27 03:57:46;;;;;;;5.95;1.60;;;;;;;;;;4980494;28;20277;-66
2023/11/27 04:00:11;;;;;;;2.67;1.45;;;;;;;;;;4976136;28;20026;-66
2023/11/27 04:02:37;;;;;;;3.78;2.20;;;;;;;;;;4985125;28;20037;-66
2023/11/27 04:05:02;;;;;;;4.88;2.13;;;;;;;;;;4986654;28;20470;-66
2023/11/27 04:07:30;;;;;;;2.50;1.42;;;;;;;;;;4986483;28;20027;-66
2023/11/27 04:09:55;;;;;;;7.82;3.58;;;;;;;;;;4984357;28;20023;-66
2023/11/27 04:12:20;;;;;;;13.98;3.72;;;;;;;;;;4986792;28;20018;-66
2023/11/27 04:14:45;;;;;;;9.38;2.65;;;;;;;;;;4982150;28;20405;-66
2023/11/27 04:17:11;;;;;;;12.30;3.55;;;;;;;;;;4987606;28;20453;-66
2023/11/27 04:19:36;;;;;;;7.75;1.90;;;;;;;;;;4984685;28;20022;-66
2023/11/27 04:22:02;;;;;;;2.58;1.42;;;;;;;;;;4989849;28;20037;-66
2023/11/27 04:24:27;;;;;;;19.55;5.22;;;;;;;;;;4989324;28;20481;-66
2023/11/27 04:26:52;;;;;;;5.73;1.40;;;;;;;;;;4992253;28;20026;-66
2023/11/27 04:29:18;;;;;;;12.55;2.42;;;;;;;;;;4988459;28;20277;-66
2023/11/27 04:31:43;;;;;;;6.55;2.75;;;;;;;;;;4990346;28;20393;-66
2023/11/27 04:34:08;;;;;;;3.08;1.60;;;;;;;;;;4991761;28;20022;-66
2023/11/27 04:36:33;;;;;;;5.53;2.10;;;;;;;;;;4990617;28;20026;-66
2023/11/27 04:38:58;;;;;;;12.80;2.38;;;;;;;;;;4987226;28;20036;-66
2023/11/27 04:41:24;;;;;;;12.10;3.30;;;;;;;;;;4987512;28;20401;-66
2023/11/27 04:43:49;;;;;;;8.77;2.43;;;;;;;;;;4985780;28;20360;-66
2023/11/27 04:46:14;;;;;;;5.75;3.20;;;;;;;;;;4987633;28;20270;-67
2023/11/27 04:48:40;;;;;;;5.53;2.77;;;;;;;;;;4986491;28;20084;-66
2023/11/27 04:51:05;;;;;;;5.55;1.98;;;;;;;;;;4987507;28;20257;-66
2023/11/27 04:53:30;;;;;;;1.15;0.80;;;;;;;;;;4987186;28;20080;-66
2023/11/27 04:55:56;;;;;;;5.03;2.15;;;;;;;;;;4988108;28;20018;-66
2023/11/27 04:58:21;;;;;;;4.68;2.45;;;;;;;;;;4988484;28;20023;-66
2023/11/27 05:00:46;;;;;;;10.20;2.53;;;;;;;;;;4982145;28;20505;-66
2023/11/27 05:03:11;;;;;;;15.23;2.97;;;;;;;;;;4985814;28;20278;-66
2023/11/27 05:05:36;;;;;;;11.90;2.53;;;;;;;;;;4982109;28;20835;-66
2023/11/27 05:08:02;;;;;;;7.05;2.95;;;;;;;;;;4984151;28;20306;-66
2023/11/27 05:10:28;;;;;;;2.20;1.40;;;;;;;;;;4987203;28;20113;-66
2023/11/27 05:12:53;;;;;;;7.93;2.28;;;;;;;;;;4985458;28;20398;-66
2023/11/27 05:15:18;;;;;;;9.55;2.53;;;;;;;;;;4986100;28;20043;-66
2023/11/27 05:17:43;;;;;;;7.38;1.98;;;;;;;;;;4985541;28;20058;-66
2023/11/27 05:20:09;;;;;;;3.65;2.17;;;;;;;;;;4988047;28;20113;-66
2023/11/27 05:22:34;;;;;;;4.40;2.13;;;;;;;;;;4981361;28;20020;-66
2023/11/27 05:24:59;;;;;;;8.30;2.60;;;;;;;;;;4978731;28;20026;-66
2023/11/27 05:27:24;;;;;;;19.00;3.73;;;;;;;;;;4984062;28;20505;-66
2023/11/27 05:29:50;;;;;;;1.83;1.17;;;;;;;;;;4989692;28;20320;-66
2023/11/27 05:32:15;;;;;;;2.30;1.27;;;;;;;;;;4991307;28;20747;-66
2023/11/27 05:34:41;;;;;;;2.42;1.55;;;;;;;;;;4990279;28;20018;-66
2023/11/27 05:37:09;;;;;;;12.95;1.73;;;;;;;;;;4988560;28;20758;-66
2023/11/27 05:39:35;;;;;;;3.17;1.85;;;;;;;;;;4980777;28;20057;-66
2023/11/27 05:42:02;;;;;;;7.78;2.05;;;;;;;;;;4981194;28;20023;-66
2023/11/27 05:44:27;;;;;;;3.97;2.95;;;;;;;;;;4986173;28;20110;-66
2023/11/27 05:46:52;;;;;;;4.35;2.35;;;;;;;;;;4984275;28;20030;-66
2023/11/27 05:49:17;;;;;;;11.13;3.00;;;;;;;;;;4983489;28;20027;-66
2023/11/27 05:51:45;;;;;;;7.30;3.03;;;;;;;;;;4985347;28;20266;-66
2023/11/27 05:54:10;;;;;;;4.05;2.05;;;;;;;;;;4979220;28;20022;-66
2023/11/27 05:56:36;;;;;;;5.60;2.65;;;;;;;;;;4970256;28;20018;-69
2023/11/27 05:59:01;;;;;;;3.55;2.17;;;;;;;;;;4983159;28;20018;-66
2023/11/27 06:01:26;;;;;;;8.13;3.20;;;;;;;;;;4984775;28;20030;-66
2023/11/27 06:03:52;;;;;;;5.67;2.97;;;;;;;;;;4978084;28;20306;-66
2023/11/27 06:06:17;;;;;;;7.93;3.20;;;;;;;;;;4984981;28;20285;-66
2023/11/27 06:08:43;;;;;;;14.83;2.43;;;;;;;;;;4982471;28;20648;-66
2023/11/27 06:11:08;;;;;;;2.78;1.00;;;;;;;;;;4985217;28;20261;-66
2023/11/27 06:13:33;;;;;;;8.18;2.40;;;;;;;;;;4985277;28;20030;-66
2023/11/27 06:15:59;;;;;;;10.93;2.42;;;;;;;;;;4984013;28;20022;-66
2023/11/27 06:18:24;;;;;;;11.52;1.80;;;;;;;;;;4988630;28;20688;-66
2023/11/27 06:20:49;;;;;;;5.03;2.17;;;;;;;;;;4985072;28;20025;-66
2023/11/27 06:23:14;;;;;;;14.18;2.60;;;;;;;;;;4981342;28;20685;-66
2023/11/27 06:25:40;;;;;;;9.18;4.45;;;;;;;;;;4982353;28;20023;-66
2023/11/27 06:28:05;;;;;;;7.53;2.25;;;;;;;;;;4984241;28;20458;-66
2023/11/27 06:30:30;;;;;;;9.45;2.92;;;;;;;;;;4983608;28;20022;-66
2023/11/27 06:32:55;;;;;;;4.88;2.22;;;;;;;;;;4981096;28;20115;-66
2023/11/27 06:35:21;;;;;;;6.68;2.90;;;;;;;;;;4978062;28;20018;-66
2023/11/27 06:37:46;;;;;;;18.50;4.20;;;;;;;;;;4982356;28;20548;-66
2023/11/27 06:40:12;;;;;;;4.20;2.33;;;;;;;;;;4983215;28;20266;-66
2023/11/27 06:42:37;;;;;;;8.75;2.47;;;;;;;;;;4981974;28;20481;-66
2023/11/27 06:45:02;;;;;;;11.15;3.60;;;;;;;;;;4989826;28;20026;-66
2023/11/27 06:47:27;;;;;;;9.07;4.05;;;;;;;;;;4985570;28;20510;-66
2023/11/27 06:49:53;;;;;;;8.95;3.83;;;;;;;;;;4985912;28;20416;-68
2023/11/27 06:52:18;;;;;;;7.20;3.75;;;;;;;;;;4987182;28;20026;-68
2023/11/27 06:54:44;;;;;;;3.50;2.33;;;;;;;;;;4982530;28;20101;-68
2023/11/27 06:57:09;;;;;;;7.93;2.67;;;;;;;;;;4982951;28;20023;-68
2023/11/27 06:59:36;;;;;;;8.27;3.67;;;;;;;;;;4983863;28;20026;-68
2023/11/27 07:02:01;;;;;;;20.17;3.90;;;;;;;;;;4981104;28;20453;-68
2023/11/27 07:04:26;;;;;;;6.70;2.85;;;;;;;;;;4981607;28;20077;-68
2023/11/27 07:06:51;;;;;;;18.50;4.60;;;;;;;;;;4984258;28;20507;-68
2023/11/27 07:09:16;;;;;;;13.68;3.17;;;;;;;;;;4985055;28;20537;-68
2023/11/27 07:11:42;;;;;;;5.68;3.13;;;;;;;;;;4984176;28;20018;-66
2023/11/27 07:14:07;;;;;;;11.18;3.25;;;;;;;;;;4982460;28;20030;-66
2023/11/27 07:16:33;;;;;;;13.60;5.05;;;;;;;;;;4984582;28;20385;-66
2023/11/27 07:18:58;;;;;;;4.32;2.50;;;;;;;;;;4985248;28;20026;-66
2023/11/27 07:21:25;;;;;;;12.93;4.30;;;;;;;;;;4981972;28;20478;-66
2023/11/27 07:23:51;;;;;;;8.95;3.53;;;;;;;;;;4981566;28;20323;-66
2023/11/27 07:26:16;;;;;;;11.40;2.88;;;;;;;;;;4981104;28;20477;-66
2023/11/27 07:28:41;;;;;;;5.20;3.13;;;;;;;;;;4981153;28;20022;-66
2023/11/27 07:31:07;;;;;;;7.72;2.63;;;;;;;;;;4984026;28;20484;-66
2023/11/27 07:33:33;;;;;;;11.70;3.35;;;;;;;;;;4986275;28;20044;-66
2023/11/27 07:35:59;;;;;;;6.25;2.60;;;;;;;;;;4981770;28;20074;-66
2023/11/27 07:38:24;;;;;;;10.85;3.35;;;;;;;;;;4979837;28;20053;-66
2023/11/27 07:40:49;;;;;;;7.37;3.27;;;;;;;;;;4982845;28;20105;-66
2023/11/27 07:43:14;;;;;;;3.47;1.87;;;;;;;;;;4983594;28;20328;-66
2023/11/27 07:45:39;;;;;;;5.73;2.33;;;;;;;;;;4985749;28;20373;-66
2023/11/27 07:48:05;;;;;;;8.63;3.25;;;;;;;;;;4988337;28;20285;-66
2023/11/27 07:50:30;;;;;;;2.63;1.70;;;;;;;;;;4987133;28;20057;-66
2023/11/27 07:52:55;;;;;;;8.40;3.23;;;;;;;;;;4990746;28;20014;-66
2023/11/27 07:55:21;;;;;;;9.15;2.85;;;;;;;;;;4988162;28;20352;-66
2023/11/27 07:57:46;;;;;;;16.77;2.78;;;;;;;;;;4987929;28;20065;-66
2023/11/27 08:00:14;;;;;;;9.05;2.45;;;;;;;;;;4986413;28;20026;-66
2023/11/27 08:02:39;;;;;;;5.22;2.03;;;;;;;;;;4980797;28;20026;-66
2023/11/27 08:05:08;;;;;;;5.22;2.20;;;;;;;;;;4987579;28;20029;-66
2023/11/27 08:07:34;;;;;;;8.50;2.97;;;;;;;;;;4988348;28;20512;-66
2023/11/27 08:09:59;;;;;;;4.47;2.85;;;;;;;;;;4986581;28;20026;-66
2023/11/27 08:12:24;;;;;;;8.70;2.08;;;;;;;;;;4989759;28;20096;-66
2023/11/27 08:14:49;;;;;;;2.03;1.35;;;;;;;;;;4986432;28;20473;-66
2023/11/27 08:17:14;;;;;;;2.83;1.67;;;;;;;;;;4987340;28;20037;-66
2023/11/27 08:19:40;;;;;;;1.80;1.35;;;;;;;;;;4987009;28;20359;-66
2023/11/27 08:22:05;;;;;;;5.07;1.92;;;;;;;;;;4986678;28;20026;-66
2023/11/27 08:24:32;;;;;;;9.93;2.60;;;;;;;;;;4987803;28;20011;-66
2023/11/27 08:26:57;;;;;;;5.25;2.25;;;;;;;;;;4988236;28;20025;-66
2023/11/27 08:29:25;;;;;;;1.60;1.27;;;;;;;;;;4988506;28;20026;-66
2023/11/27 08:31:52;;;;;;;4.53;2.50;;;;;;;;;;4988695;28;20480;-66
2023/11/27 08:34:17;;;;;;;8.90;2.95;;;;;;;;;;4988478;28;20393;-66
2023/11/27 08:36:42;;;;;;;2.88;1.92;;;;;;;;;;4986504;28;20093;-66
2023/11/27 08:39:10;;;;;;;5.35;2.40;;;;;;;;;;4986204;28;20029;-66
2023/11/27 08:41:36;;;;;;;4.10;1.95;;;;;;;;;;4987812;28;20105;-66
2023/11/27 08:44:01;;;;;;;6.15;2.17;;;;;;;;;;4984958;28;20122;-66
2023/11/27 08:46:26;;;;;;;2.57;1.93;;;;;;;;;;4987303;28;20481;-66
2023/11/27 08:48:51;;;;;;;4.68;2.70;;;;;;;;;;4982928;28;20273;-66
2023/11/27 08:51:16;;;;;;;3.58;2.20;;;;;;;;;;4981959;28;20098;-66
2023/11/27 08:53:42;;;;;;;8.23;2.38;;;;;;;;;;4984177;28;20021;-66
2023/11/27 08:56:07;;;;;;;3.72;2.10;;;;;;;;;;4982678;28;20049;-66
2023/11/27 08:58:34;;;;;;;2.70;1.88;;;;;;;;;;4984565;28;20529;-66
2023/11/27 09:01:04;;;;;;;6.47;1.85;;;;;;;;;;4983019;28;20458;-66
2023/11/27 09:03:29;;;;;;;;;;;;;;;;;;4983713;28;20080;-66
2023/11/27 09:05:55;;;;;;;3.30;2.10;;;;;;;;;;4980808;28;19917;-68
2023/11/27 09:08:21;;;;;;;3.40;1.90;;;;;;;;;;4985460;28;20027;-66
2023/11/27 09:10:48;;;;;;;12.23;2.00;;;;;;;;;;4984953;28;20018;-66
2023/11/27 09:13:13;;;;;;;4.57;2.10;;;;;;;;;;4987285;28;20540;-66
2023/11/27 09:15:38;;;;;;;4.03;1.08;;;;;;;;;;4980319;28;20022;-66
2023/11/27 09:18:04;;;;;;;4.37;2.07;;;;;;;;;;4986082;28;20105;-66
2023/11/27 09:20:29;;;;;;;3.85;1.88;;;;;;;;;;4984929;28;20278;-66
2023/11/27 09:22:56;;;;;;;2.05;1.23;;;;;;;;;;4983452;28;20494;-66
2023/11/27 09:25:21;;;;;;;3.33;1.73;;;;;;;;;;4979129;28;20145;-66
2023/11/27 09:27:46;;;;;;;2.33;1.65;;;;;;;;;;4985841;28;20030;-66
2023/11/27 09:30:12;;;;;;;1.37;0.87;;;;;;;;;;4985897;28;20030;-66
2023/11/27 09:32:37;;;;;;;7.28;2.42;;;;;;;;;;4982466;28;20258;-66
2023/11/27 09:35:08;;;;;;;3.13;1.90;;;;;;;;;;4980024;28;20426;-66
2023/11/27 09:37:33;;;;;;;4.82;1.67;;;;;;;;;;4984024;28;20026;-66
2023/11/27 09:40:02;;;;;;;1.13;0.80;;;;;;;;;;4983622;28;20126;-66
2023/11/27 09:42:35;;;;;;;5.90;2.13;;;;;;;;;;4952779;28;1049995;-66
2023/11/27 09:45:04;;;;;;;3.00;1.55;;;;;;;;;;4984289;28;20044;-66
2023/11/27 09:47:32;;;;;;;1.65;1.38;;;;;;;;;;4984811;28;20040;-66
2023/11/27 09:49:58;;;;;;;3.90;1.63;;;;;;;;;;4987712;28;20458;-66
2023/11/27 09:52:26;;;;;;;2.22;1.52;;;;;;;;;;4986112;28;20038;-66
2023/11/27 09:54:55;;;;;;;2.88;0.98;;;;;;;;;;4988103;28;20018;-66
2023/11/27 09:57:20;;;;;;;2.95;1.65;;;;;;;;;;4982602;28;20025;-66
2023/11/27 09:59:47;;;;;;;2.70;1.45;;;;;;;;;;4986932;28;20030;-66
2023/11/27 10:02:12;;;;;;;2.20;1.43;;;;;;;;;;4981700;28;20086;-67
2023/11/27 10:04:38;;;;;;;1.65;0.95;;;;;;;;;;4982469;28;20297;-67
2023/11/27 10:07:06;;;;;;;2.70;1.03;;;;;;;;;;4989561;28;20022;-67
2023/11/27 10:09:33;;;;;;;1.85;0.90;;;;;;;;;;4984387;28;20281;-67
2023/11/27 10:12:00;;;;;;;2.47;1.52;;;;;;;;;;4983445;28;20029;-67
2023/11/27 10:14:27;;;;;;;2.33;0.98;;;;;;;;;;4985170;28;20027;-66
2023/11/27 10:16:53;;;;;;;1.23;0.82;;;;;;;;;;4983960;28;20029;-66
2023/11/27 10:19:23;;;;;;;1.20;0.70;;;;;;;;;;4981870;28;20026;-66
2023/11/27 10:21:48;;;;;;;1.33;0.95;;;;;;;;;;4987994;28;20027;-67
2023/11/27 10:24:14;;;;;;;2.10;1.02;;;;;;;;;;4984575;28;20545;-67
2023/11/27 10:26:40;;;;;;;4.80;1.67;;;;;;;;;;4982527;28;20026;-67
2023/11/27 10:29:06;;;;;;;1.17;0.98;;;;;;;;;;4985546;28;20033;-67
2023/11/27 10:31:32;;;;;;;1.75;0.75;;;;;;;;;;4980402;28;20035;-67
2023/11/27 10:33:57;;;;;;;2.67;1.50;;;;;;;;;;4981352;28;20137;-67
2023/11/27 10:36:25;;;;;;;2.17;0.95;;;;;;;;;;4968647;28;20489;-67
2023/11/27 10:39:00;;;;;;;1.75;0.85;;;;;;;;;;4986498;28;20026;-67
2023/11/27 10:41:26;;;;;;;2.28;0.73;;;;;;;;;;4983043;28;20022;-67
2023/11/27 10:43:52;;;;;;;3.58;1.30;;;;;;;;;;4980485;28;20085;-67
2023/11/27 10:46:18;;;;;;;1.90;0.80;;;;;;;;;;4986216;28;20485;-67
2023/11/27 10:48:44;;;;;;;2.92;1.15;;;;;;;;;;4979480;28;20030;-67
2023/11/27 10:51:12;;;;;;;1.10;0.90;;;;;;;;;;4978680;28;20062;-67
2023/11/27 10:53:38;;;;;;;1.63;1.00;;;;;;;;;;4981225;28;20034;-67
2023/11/27 10:56:05;;;;;;;2.67;1.10;;;;;;;;;;4986590;28;20034;-67
2023/11/27 10:58:31;;;;;;;2.47;0.75;;;;;;;;;;4984716;28;20021;-67
2023/11/27 11:00:57;;;;;;;2.13;0.90;;;;;;;;;;4982182;28;20045;-67
2023/11/27 11:03:23;;;;;;;2.92;0.80;;;;;;;;;;4980845;28;20032;-67
2023/11/27 11:05:55;;;;;;;1.45;0.75;;;;;;;;;;4979491;28;20389;-67
2023/11/27 11:08:22;;;;;;;1.67;0.68;;;;;;;;;;4983368;28;20029;-67
2023/11/27 11:10:47;;;;;;;1.85;0.63;;;;;;;;;;4983567;28;20018;-67
2023/11/27 11:13:15;;;;;;;1.10;0.85;;;;;;;;;;4982401;28;20469;-67
2023/11/27 11:15:40;;;;;;;1.08;0.80;;;;;;;;;;4980789;28;20158;-67
2023/11/27 11:18:11;;;;;;;1.57;0.80;;;;;;;;;;4985938;28;20127;-67
2023/11/27 11:20:49;;;;;;;1.73;0.50;;;;;;;;;;4983219;28;20335;-67
2023/11/27 11:23:15;;;;;;;2.08;0.85;;;;;;;;;;4979150;28;20050;-67
2023/11/27 11:25:48;;;;;;;1.77;0.95;;;;;;;;;;4980193;28;20182;-67
2023/11/27 11:28:21;;;;;;;1.20;0.55;;;;;;;;;;4983650;28;20033;-67
2023/11/27 11:31:07;;;;;;;2.63;1.00;;;;;;;;;;4979691;28;20015;-67
2023/11/27 11:33:32;;;;;;;0.32;0.32;;;;;;;;;;4980332;28;20116;-67
2023/11/27 11:35:58;;;;;;;1.35;0.70;;;;;;;;;;4979061;28;20153;-67
2023/11/27 11:38:23;;;;;;;2.10;1.00;;;;;;;;;;4978885;28;20054;-67
2023/11/27 11:40:51;;;;;;;1.20;1.10;;;;;;;;;;4980576;28;20034;-67
2023/11/27 11:43:17;;;;;;;0.77;0.57;;;;;;;;;;4985376;28;20022;-67
2023/11/27 11:45:42;;;;;;;1.17;0.98;;;;;;;;;;4982186;28;20041;-67
2023/11/27 11:48:12;;;;;;;1.90;1.02;;;;;;;;;;4979161;28;20130;-67
2023/11/27 11:50:41;;;;;;;2.00;0.82;;;;;;;;;;4984213;28;20023;-67
2023/11/27 11:53:21;;;;;;;1.08;0.77;;;;;;;;;;4984995;28;20042;-67
2023/11/27 11:55:47;;;;;;;;;;;;;;;;;;4980638;28;20366;-67
2023/11/27 11:58:18;;;;;;;0.63;0.50;;;;;;;;;;4979704;28;19914;-67
2023/11/27 12:00:44;;;;;;;0.68;0.57;;;;;;;;;;4980860;28;20045;-67
2023/11/27 12:03:17;;;;;;;4.05;1.25;;;;;;;;;;4977003;28;20106;-67
2023/11/27 12:05:57;;;;;;;3.92;1.17;;;;;;;;;;4982596;28;20022;-67
2023/11/27 12:08:26;;;;;;;1.63;1.10;;;;;;;;;;4982106;28;20110;-67
2023/11/27 12:10:52;;;;;;;1.38;0.93;;;;;;;;;;4985096;28;20511;-67
2023/11/27 12:13:23;;;;;;;0.77;0.73;;;;;;;;;;4982554;28;20022;-67
2023/11/27 12:15:50;;;;;;;5.38;0.52;;;;;;;;;;4982917;28;20627;-67
2023/11/27 12:18:15;;;;;;;3.17;1.08;;;;;;;;;;4982996;28;20057;-67
2023/11/27 12:20:42;;;;;;;3.25;1.20;;;;;;;;;;4981503;28;20505;-67
2023/11/27 12:23:08;;;;;;;1.85;1.13;;;;;;;;;;4979340;28;20022;-67
2023/11/27 12:25:35;;;;;;;3.42;1.17;;;;;;;;;;4985189;28;20018;-67
2023/11/27 12:28:00;;;;;;;0.90;0.70;;;;;;;;;;4983095;28;20488;-67
2023/11/27 12:30:25;;;;;;;1.42;1.02;;;;;;;;;;4980451;28;20019;-67
2023/11/27 12:32:51;;;;;;;0.63;0.45;;;;;;;;;;4984665;28;20034;-67
2023/11/27 12:35:20;;;;;;;0.95;0.60;;;;;;;;;;4985120;28;20045;-67
2023/11/27 12:37:46;;;;;;;1.08;0.75;;;;;;;;;;4984785;28;20030;-67
2023/11/27 12:40:17;;;;;;;1.02;0.70;;;;;;;;;;4989084;28;20030;-67
2023/11/27 12:42:43;;;;;;;2.90;1.73;;;;;;;;;;4983167;28;20080;-67
2023/11/27 12:45:08;;;;;;;1.75;0.60;;;;;;;;;;4984317;28;20455;-67
2023/11/27 12:47:34;;;;;;;2.28;1.00;;;;;;;;;;4984518;28;21414;-67
2023/11/27 12:50:00;;;;;;;2.35;1.02;;;;;;;;;;4984660;28;20018;-67
2023/11/27 12:52:26;;;;;;;1.67;0.73;;;;;;;;;;4985635;28;20019;-67
2023/11/27 12:54:54;;;;;;;4.93;0.80;;;;;;;;;;4987964;28;20026;-67
2023/11/27 12:57:20;;;;;;;2.50;1.25;;;;;;;;;;4988600;28;20037;-67
2023/11/27 12:59:48;;;;;;;2.42;0.90;;;;;;;;;;4989764;28;20097;-67
2023/11/27 13:02:21;;;;;;;0.73;0.50;;;;;;;;;;4988950;28;20072;-67
2023/11/27 13:04:47;;;;;;;1.75;0.63;;;;;;;;;;4985388;28;20026;-67
2023/11/27 13:07:15;;;;;;;1.52;0.65;;;;;;;;;;4987657;28;20018;-67
2023/11/27 13:09:42;;;;;;;0.88;0.63;;;;;;;;;;4985778;28;20025;-67
2023/11/27 13:12:16;;;;;;;1.52;0.93;;;;;;;;;;4981036;28;20015;-67
2023/11/27 13:14:51;;;;;;;2.30;0.90;;;;;;;;;;4984019;28;20033;-67
2023/11/27 13:17:19;;;;;;;1.38;0.55;;;;;;;;;;4978179;28;20039;-67
2023/11/27 13:19:47;;;;;;;2.08;1.20;;;;;;;;;;4983186;28;20010;-67
2023/11/27 13:22:14;;;;;;;2.20;1.40;;;;;;;;;;4985570;28;20018;-67
2023/11/27 13:24:41;;;;;;;1.33;0.70;;;;;;;;;;4983428;28;20555;-67
2023/11/27 13:27:07;;;;;;;0.70;0.70;;;;;;;;;;4980427;28;20011;-67
2023/11/27 13:29:32;;;;;;;1.25;0.88;;;;;;;;;;4984120;28;20505;-67
2023/11/27 13:32:00;;;;;;;1.05;0.98;;;;;;;;;;4987890;28;20022;-68
2023/11/27 13:34:37;;;;;;;2.30;0.68;;;;;;;;;;4987040;28;20097;-68
2023/11/27 13:37:08;;;;;;;4.40;1.40;;;;;;;;;;4987227;28;20018;-67
2023/11/27 13:39:55;;;;;;;1.60;0.90;;;;;;;;;;4982364;28;20015;-68
2023/11/27 13:42:23;;;;;;;0.55;0.55;;;;;;;;;;4984285;28;20138;-68
2023/11/27 13:44:48;;;;;;;1.80;1.25;;;;;;;;;;4986411;28;20500;-68
2023/11/27 13:47:17;;;;;;;1.38;1.00;;;;;;;;;;4987155;28;20027;-68
2023/11/27 13:49:45;;;;;;;1.00;0.90;;;;;;;;;;4983691;28;20022;-68
2023/11/27 13:52:14;;;;;;;0.57;0.57;;;;;;;;;;4983805;28;20022;-68
2023/11/27 13:54:39;;;;;;;2.92;1.48;;;;;;;;;;4988560;28;20014;-68
2023/11/27 13:57:05;;;;;;;0.38;0.32;;;;;;;;;;4987388;28;20045;-68
2023/11/27 13:59:38;;;;;;;2.35;0.70;;;;;;;;;;4982925;28;20355;-68
2023/11/27 14:02:10;;;;;;;2.78;0.98;;;;;;;;;;4982939;28;20065;-68
2023/11/27 14:04:36;;;;;;;2.03;1.27;;;;;;;;;;4982660;28;20018;-66
2023/11/27 14:07:06;;;;;;;2.50;0.90;;;;;;;;;;4980205;28;20580;-66
2023/11/27 14:09:54;;;;;;;3.08;1.10;;;;;;;;;;4983236;28;20026;-67
2023/11/27 14:12:26;;;;;;;1.63;0.90;;;;;;;;;;4982510;28;20038;-67
2023/11/27 14:15:05;;;;;;;2.58;1.20;;;;;;;;;;4982479;28;20478;-68
2023/11/27 14:17:32;;;;;;;2.28;1.05;;;;;;;;;;4983729;28;20023;-68
2023/11/27 14:23:04;;;;;;;2.00;1.30;;;;;;;;;;4980362;28;20546;-68
2023/11/27 14:28:30;;;;;;;1.15;0.77;;;;;;;;;;4982876;28;20038;-68
2023/11/27 14:30:56;;;;;;;1.35;0.65;;;;;;;;;;4983368;28;20026;-68
2023/11/27 14:33:22;;;;;;;1.40;0.82;;;;;;;;;;4988718;28;20497;-68
2023/11/27 14:35:47;;;;;;;3.13;1.42;;;;;;;;;;4984333;28;20019;-68
2023/11/27 14:38:14;;;;;;;7.30;1.90;;;;;;;;;;4987260;28;20092;-68
2023/11/27 14:40:41;;;;;;;2.05;1.10;;;;;;;;;;4979569;28;20037;-68